Rocky Mount, NC (27804)

5:19 AM EDT en Marzo 29, 2015 (GMT -0400)
City Lake - Rocky Mount | | Change Station
CLOSE
Current Station
Estación meteorológica personal
Location: Rocky Mount, NC
Altura: 143 ft
Estaciones meteorológicas cercanas

Alt 143 ft 35.95 °N, 77.82 °W | Updated 24 seconds ago

Despejado
Despejado
29.5 ° F
Sensación térmica 30 ° F
N
0.0
Viento Variable Viento desde NO

Hoy
Alta -- | Baja -- ° F
--% Posibilidad de precipitaciones
Ayer
Alta -- | Baja -- ° F
Precip. -- pul
7:02 AM 7:30 PM
Gibosa creciente, 70% visible
Presión 30.34 pul
Visibilidad 10.0 Millas
Nubes Despejado
Vientos helados 30 ° F
Punto de rocío 2 ° F
Humedad 30%
Precipitaciones 0.00 pul
Espesor de la nieve No disponible.
UV 0 de una escala de 12
Polen 9.40 de una escala de 12
Calidad del aire No disponible.
Flu Activity No disponible.
METAR KRWI 290853Z AUTO 33006KT 10SM CLR M02/M10 A3033 RMK AO2 SLP273 T10221100 53008 $

More Conditions Fewer Conditions

Presión 30.34 pul
Visibilidad 10.0 Millas
Nubes Despejado
Vientos helados 30 ° F
Punto de rocío 2 ° F
Humedad 30%
Precipitaciones 0.00 pul
Espesor de la nieve No disponible.
UV 0 de una escala de 12
Polen 9.40 de una escala de 12
Calidad del aire No disponible.
Flu Activity No disponible.
METAR KRWI 290853Z AUTO 33006KT 10SM CLR M02/M10 A3033 RMK AO2 SLP273 T10221100 53008 $

More Conditions Fewer Conditions

10-Day Weather Forecast

Almanac

Astronomía

Mar. 29, 2015 Salida Puesta
Hora real
Crepúsculo civil
Crepúsculo náutico
Crepúsculo astronómico
Luna
Horas de luz
Horas de luz
Tomorrow will be .
, % of the Moon is Illuminated

Extremos de hoy

Máximos del estado Bajos del estado

Community

WunderPhotos

Upload Photos

1,809,187 ¡fotos cargadas!

WunderBlogs® & News

Nearby

Calidad del aire

  Calidad del aire Índice AQ Contaminante
Not available.

Grosos de nieve

Estación Profundido Altura

Actividad de terremotos

Ciudad Distance Mag. Tiempo y dato
Magnitud mínima muestra es 2,5.

Temperaturas de aguas costeras

Lugar Temperatura

Stations

Estaciones meteorológicas cercanas

Ubicación de la estación Temp. Vientos helados Punto de rocío Humedad Viento Precip. Alt Actualizado Tipo